Time;durP1;ratioP1;P1;durP2;ratioP2;P2;SDS_P1;SDS_P2;PMS_P1;PMS_P2;Temp;Humidity;BMP_temperature;BMP_pressure;BME280_temperature;BME280_humidity;BME280_pressure;Samples;Min_cycle;Max_cycle;Signal;HPM_P1;HPM_P2
2024/03/06 00:00:54;;;;;;;2.00;1.90;;;;;;;;;;5032733;28;59279;-80
2024/03/06 00:03:19;;;;;;;2.55;2.35;;;;;;;;;;5028496;28;60189;-83
2024/03/06 00:05:44;;;;;;;1.98;1.77;;;;;;;;;;5029148;28;59329;-81
2024/03/06 00:08:10;;;;;;;1.97;1.87;;;;;;;;;;5031463;28;61134;-82
2024/03/06 00:10:36;;;;;;;1.80;1.70;;;;;;;;;;5029627;28;59317;-82
2024/03/06 00:13:01;;;;;;;2.22;2.03;;;;;;;;;;5029058;28;59238;-82
2024/03/06 00:15:27;;;;;;;2.07;1.90;;;;;;;;;;5029743;28;60210;-83
2024/03/06 00:17:52;;;;;;;2.13;1.92;;;;;;;;;;5029566;28;59186;-82
2024/03/06 00:20:17;;;;;;;1.60;1.50;;;;;;;;;;5031946;28;59260;-82
2024/03/06 00:22:43;;;;;;;1.93;1.67;;;;;;;;;;5031354;28;60317;-82
2024/03/06 00:25:08;;;;;;;1.90;1.80;;;;;;;;;;5029966;28;59255;-82
2024/03/06 00:27:33;;;;;;;3.03;2.00;;;;;;;;;;5027251;28;59764;-81
2024/03/06 00:29:58;;;;;;;2.10;1.87;;;;;;;;;;5027885;28;59249;-83
2024/03/06 00:32:23;;;;;;;1.90;1.80;;;;;;;;;;5029965;28;59335;-82
2024/03/06 00:34:49;;;;;;;1.63;1.52;;;;;;;;;;5029233;28;60011;-83
2024/03/06 00:37:14;;;;;;;1.73;1.63;;;;;;;;;;5026036;28;59394;-81
2024/03/06 00:39:39;;;;;;;1.53;1.43;;;;;;;;;;5028070;28;59292;-82
2024/03/06 00:42:04;;;;;;;2.27;2.07;;;;;;;;;;5026866;28;59692;-83
2024/03/06 00:44:30;;;;;;;1.67;1.58;;;;;;;;;;5029269;28;59109;-82
2024/03/06 00:46:55;;;;;;;2.78;2.33;;;;;;;;;;5028278;28;59454;-81
2024/03/06 00:49:20;;;;;;;1.90;1.80;;;;;;;;;;5024874;28;59371;-83
2024/03/06 00:51:45;;;;;;;3.10;1.73;;;;;;;;;;5028142;28;59165;-82
2024/03/06 00:54:11;;;;;;;1.80;1.70;;;;;;;;;;5024895;28;60260;-82
2024/03/06 00:56:39;;;;;;;2.27;2.00;;;;;;;;;;5026276;28;59346;-82
2024/03/06 00:59:04;;;;;;;1.67;1.58;;;;;;;;;;5029065;28;59283;-82
2024/03/06 01:01:29;;;;;;;2.08;1.88;;;;;;;;;;5027532;28;59309;-82
2024/03/06 01:03:55;;;;;;;1.57;1.47;;;;;;;;;;5026639;28;59377;-82
2024/03/06 01:06:20;;;;;;;1.70;1.30;;;;;;;;;;5029194;27;59281;-82
2024/03/06 01:08:45;;;;;;;3.10;1.73;;;;;;;;;;5027391;28;59292;-81
2024/03/06 01:11:14;;;;;;;1.77;1.67;;;;;;;;;;5028419;28;59235;-82
2024/03/06 01:13:39;;;;;;;1.83;1.73;;;;;;;;;;5028242;28;60535;-82
2024/03/06 01:16:04;;;;;;;1.83;1.73;;;;;;;;;;5027491;28;59297;-82
2024/03/06 01:18:30;;;;;;;2.08;1.88;;;;;;;;;;5026196;28;59376;-82
2024/03/06 01:20:56;;;;;;;1.65;1.50;;;;;;;;;;5027510;28;60053;-82
2024/03/06 01:23:21;;;;;;;1.67;1.57;;;;;;;;;;5030257;28;59149;-83
2024/03/06 01:25:46;;;;;;;1.63;1.53;;;;;;;;;;5027423;28;59323;-81
2024/03/06 01:28:11;;;;;;;1.88;1.77;;;;;;;;;;5026584;28;61097;-82
2024/03/06 01:30:36;;;;;;;1.60;1.50;;;;;;;;;;5026016;28;59403;-83
2024/03/06 01:33:01;;;;;;;1.80;1.70;;;;;;;;;;5029517;28;60230;-83
2024/03/06 01:35:26;;;;;;;2.00;1.90;;;;;;;;;;5025449;28;59405;-81
2024/03/06 01:37:52;;;;;;;1.83;1.73;;;;;;;;;;5029878;28;59329;-82
2024/03/06 01:40:17;;;;;;;1.30;1.20;;;;;;;;;;5027771;28;60162;-82
2024/03/06 01:42:42;;;;;;;2.10;1.80;;;;;;;;;;5027569;28;59299;-82
2024/03/06 01:45:07;;;;;;;1.80;1.70;;;;;;;;;;5027955;28;59296;-82
2024/03/06 01:47:33;;;;;;;2.08;1.98;;;;;;;;;;5025934;28;60861;-82
2024/03/06 01:49:59;;;;;;;1.67;1.58;;;;;;;;;;5027551;28;59283;-82
2024/03/06 01:52:24;;;;;;;1.50;1.40;;;;;;;;;;5028529;28;60314;-78
2024/03/06 01:54:50;;;;;;;1.50;1.40;;;;;;;;;;5025217;28;59233;-78
2024/03/06 01:57:16;;;;;;;1.50;1.40;;;;;;;;;;5028177;28;59309;-78
2024/03/06 01:59:41;;;;;;;1.85;1.75;;;;;;;;;;5027189;28;60115;-78
2024/03/06 02:02:08;;;;;;;1.88;1.77;;;;;;;;;;5028271;28;59427;-78
2024/03/06 02:04:33;;;;;;;2.13;1.98;;;;;;;;;;5025377;28;59468;-78
2024/03/06 02:06:59;;;;;;;1.70;1.60;;;;;;;;;;5028290;28;60154;-78
2024/03/06 02:09:24;;;;;;;1.40;1.30;;;;;;;;;;5030550;28;59463;-78
2024/03/06 02:11:50;;;;;;;1.97;1.47;;;;;;;;;;5026946;28;60205;-78
2024/03/06 02:14:15;;;;;;;1.70;1.60;;;;;;;;;;5027670;28;59164;-78
2024/03/06 02:16:40;;;;;;;1.50;1.40;;;;;;;;;;5030097;28;59251;-78
2024/03/06 02:19:05;;;;;;;1.40;1.30;;;;;;;;;;5026905;28;60255;-78
2024/03/06 02:21:31;;;;;;;1.90;1.40;;;;;;;;;;5026009;28;59492;-77
2024/03/06 02:23:56;;;;;;;1.70;1.60;;;;;;;;;;5027469;28;59251;-78
2024/03/06 02:26:22;;;;;;;2.13;1.50;;;;;;;;;;5027780;28;60415;-78
2024/03/06 02:28:49;;;;;;;1.97;1.57;;;;;;;;;;5028156;28;59118;-78
2024/03/06 02:31:15;;;;;;;1.63;1.52;;;;;;;;;;5026654;28;59228;-78
2024/03/06 02:33:40;;;;;;;1.60;1.50;;;;;;;;;;5025119;28;59232;-78
2024/03/06 02:36:05;;;;;;;1.30;1.20;;;;;;;;;;5027627;28;59467;-78
2024/03/06 02:38:30;;;;;;;1.60;1.50;;;;;;;;;;5023596;28;60129;-78
2024/03/06 02:40:55;;;;;;;2.70;1.93;;;;;;;;;;5018791;28;59220;-77
2024/03/06 02:43:21;;;;;;;1.65;1.35;;;;;;;;;;5022789;28;59312;-78
2024/03/06 02:45:46;;;;;;;1.77;1.65;;;;;;;;;;5022675;28;61145;-77
2024/03/06 02:48:11;;;;;;;2.70;2.00;;;;;;;;;;5022549;28;59148;-78
2024/03/06 02:50:36;;;;;;;1.65;1.55;;;;;;;;;;5024040;28;59220;-78
2024/03/06 02:53:01;;;;;;;1.87;1.77;;;;;;;;;;5025298;28;59688;-78
2024/03/06 02:55:26;;;;;;;1.17;1.17;;;;;;;;;;5022648;28;59285;-78
2024/03/06 02:57:51;;;;;;;1.52;1.40;;;;;;;;;;5021856;28;59245;-78
2024/03/06 03:00:17;;;;;;;1.17;1.07;;;;;;;;;;5021235;28;59147;-77
2024/03/06 03:02:43;;;;;;;1.40;1.30;;;;;;;;;;5023328;28;59282;-78
2024/03/06 03:05:08;;;;;;;1.63;1.52;;;;;;;;;;5022694;28;60318;-77
2024/03/06 03:07:34;;;;;;;1.45;1.35;;;;;;;;;;5022533;28;59141;-78
2024/03/06 03:09:59;;;;;;;1.53;1.27;;;;;;;;;;5025292;28;59739;-78
2024/03/06 03:12:24;;;;;;;2.38;1.70;;;;;;;;;;5024519;28;59926;-77
2024/03/06 03:14:49;;;;;;;1.67;1.57;;;;;;;;;;5022771;28;59370;-77
2024/03/06 03:17:15;;;;;;;1.80;1.70;;;;;;;;;;5023166;28;61270;-78
2024/03/06 03:19:40;;;;;;;1.70;1.60;;;;;;;;;;5024204;28;59351;-78
2024/03/06 03:22:05;;;;;;;1.67;1.58;;;;;;;;;;5026009;28;59279;-78
2024/03/06 03:24:31;;;;;;;1.40;1.30;;;;;;;;;;5023957;28;60154;-78
2024/03/06 03:26:56;;;;;;;1.57;1.47;;;;;;;;;;5026220;28;59743;-77
2024/03/06 03:29:21;;;;;;;1.37;1.27;;;;;;;;;;5025598;28;59419;-78
2024/03/06 03:31:46;;;;;;;1.67;1.50;;;;;;;;;;5024149;28;60610;-78
2024/03/06 03:34:11;;;;;;;1.43;1.33;;;;;;;;;;5026109;28;59257;-78
2024/03/06 03:36:43;;;;;;;1.50;1.40;;;;;;;;;;5026615;28;59347;-78
2024/03/06 03:39:15;;;;;;;1.55;1.27;;;;;;;;;;5022502;28;59971;-78
2024/03/06 03:41:45;;;;;;;1.33;1.20;;;;;;;;;;5024989;28;59283;-77
2024/03/06 03:44:10;;;;;;;1.27;1.17;;;;;;;;;;5026364;28;60059;-78
2024/03/06 03:46:35;;;;;;;0.98;0.98;;;;;;;;;;5023618;28;59903;-78
2024/03/06 03:49:01;;;;;;;1.20;1.10;;;;;;;;;;5026946;28;59180;-78
2024/03/06 03:51:26;;;;;;;1.33;1.23;;;;;;;;;;5029067;28;60461;-78
2024/03/06 03:53:52;;;;;;;1.43;1.33;;;;;;;;;;5024205;28;59271;-77
2024/03/06 03:56:18;;;;;;;1.42;1.33;;;;;;;;;;5025163;28;59341;-78
2024/03/06 03:58:43;;;;;;;1.60;1.50;;;;;;;;;;5025071;28;59189;-78
2024/03/06 04:01:10;;;;;;;1.73;1.63;;;;;;;;;;5024895;28;59260;-81
2024/03/06 04:03:36;;;;;;;1.48;1.38;;;;;;;;;;5027181;28;59393;-83
2024/03/06 04:06:01;;;;;;;1.77;1.67;;;;;;;;;;5025699;28;59377;-82
2024/03/06 04:08:26;;;;;;;1.40;1.30;;;;;;;;;;5025375;28;59185;-82
2024/03/06 04:10:51;;;;;;;1.25;1.15;;;;;;;;;;5028171;28;60364;-78
2024/03/06 04:13:19;;;;;;;1.47;1.37;;;;;;;;;;5026489;28;59306;-82
2024/03/06 04:15:44;;;;;;;1.52;1.42;;;;;;;;;;5028565;28;59204;-82
2024/03/06 04:18:09;;;;;;;1.40;1.30;;;;;;;;;;5025506;28;60879;-81
2024/03/06 04:20:34;;;;;;;1.47;1.37;;;;;;;;;;5024618;28;59180;-82
2024/03/06 04:23:00;;;;;;;1.53;1.30;;;;;;;;;;5022590;28;60325;-82
2024/03/06 04:25:25;;;;;;;1.87;1.70;;;;;;;;;;5022000;28;59461;-82
2024/03/06 04:27:50;;;;;;;1.40;1.30;;;;;;;;;;5022758;28;59210;-82
2024/03/06 04:30:15;;;;;;;1.52;1.42;;;;;;;;;;5023778;28;59571;-79
2024/03/06 04:32:40;;;;;;;1.33;1.23;;;;;;;;;;5027843;28;59407;-79
2024/03/06 04:35:06;;;;;;;1.47;1.37;;;;;;;;;;5030592;28;59685;-80
2024/03/06 04:37:33;;;;;;;1.40;1.30;;;;;;;;;;5022387;28;61279;-79
2024/03/06 04:39:58;;;;;;;1.67;1.58;;;;;;;;;;5029428;28;59213;-76
2024/03/06 04:42:23;;;;;;;1.45;1.35;;;;;;;;;;5028790;28;59290;-75
2024/03/06 04:44:48;;;;;;;1.40;1.30;;;;;;;;;;5028080;28;59385;-76
2024/03/06 04:47:14;;;;;;;1.50;1.40;;;;;;;;;;5030410;28;59436;-76
2024/03/06 04:49:39;;;;;;;2.30;1.27;;;;;;;;;;5026519;28;60314;-76
2024/03/06 04:52:04;;;;;;;1.88;1.67;;;;;;;;;;5028932;28;59191;-76
2024/03/06 04:54:29;;;;;;;1.70;1.60;;;;;;;;;;5027933;28;59243;-76
2024/03/06 04:56:55;;;;;;;1.50;1.40;;;;;;;;;;5027799;28;60211;-76
2024/03/06 04:59:20;;;;;;;1.60;1.50;;;;;;;;;;5027352;28;59243;-81
2024/03/06 05:01:45;;;;;;;1.80;1.70;;;;;;;;;;5028265;28;59190;-81
2024/03/06 05:04:11;;;;;;;1.63;1.53;;;;;;;;;;5026880;28;59515;-81
2024/03/06 05:06:37;;;;;;;1.60;1.50;;;;;;;;;;5026981;28;59286;-80
2024/03/06 05:09:02;;;;;;;1.55;1.45;;;;;;;;;;5028805;28;60104;-81
2024/03/06 05:11:28;;;;;;;1.85;1.75;;;;;;;;;;5029097;28;59315;-81
2024/03/06 05:13:53;;;;;;;1.57;1.47;;;;;;;;;;5028816;28;59129;-81
2024/03/06 05:16:18;;;;;;;2.00;1.90;;;;;;;;;;5026114;28;60034;-81
2024/03/06 05:18:43;;;;;;;1.87;1.30;;;;;;;;;;5025986;28;59223;-84
2024/03/06 05:21:08;;;;;;;1.60;1.50;;;;;;;;;;5026745;28;59227;-77
2024/03/06 05:23:34;;;;;;;2.00;1.37;;;;;;;;;;5025459;28;61075;-77
2024/03/06 05:25:59;;;;;;;3.33;1.80;;;;;;;;;;5024365;28;59370;-81
2024/03/06 05:28:24;;;;;;;3.38;1.23;;;;;;;;;;5026102;28;60280;-77
2024/03/06 05:30:49;;;;;;;1.60;1.50;;;;;;;;;;5023288;28;59667;-77
2024/03/06 05:33:15;;;;;;;1.20;1.10;;;;;;;;;;5027099;28;59209;-75
2024/03/06 05:35:40;;;;;;;1.83;1.70;;;;;;;;;;5026133;27;59853;-75
2024/03/06 05:38:06;;;;;;;1.60;1.50;;;;;;;;;;5026016;28;59179;-75
2024/03/06 05:40:35;;;;;;;3.20;1.95;;;;;;;;;;5023437;28;59742;-76
2024/03/06 05:43:00;;;;;;;2.00;1.90;;;;;;;;;;5024372;28;60435;-75
2024/03/06 05:45:25;;;;;;;3.05;1.55;;;;;;;;;;5026404;28;59362;-76
2024/03/06 05:47:51;;;;;;;3.70;1.90;;;;;;;;;;5027100;28;60611;-75
2024/03/06 05:50:17;;;;;;;1.60;1.50;;;;;;;;;;5027138;28;60491;-75
2024/03/06 05:52:42;;;;;;;3.13;1.63;;;;;;;;;;5027720;28;59282;-75
2024/03/06 05:55:07;;;;;;;1.70;1.60;;;;;;;;;;5026507;28;61083;-75
2024/03/06 05:57:32;;;;;;;3.70;2.43;;;;;;;;;;5026873;28;59403;-75
2024/03/06 05:59:58;;;;;;;1.85;1.75;;;;;;;;;;5028864;28;59225;-75
2024/03/06 06:02:23;;;;;;;1.60;1.50;;;;;;;;;;5027438;28;60439;-75
2024/03/06 06:04:48;;;;;;;1.60;1.50;;;;;;;;;;5025397;28;59259;-75
2024/03/06 06:07:13;;;;;;;1.75;1.23;;;;;;;;;;5027084;28;59230;-75
2024/03/06 06:09:38;;;;;;;1.97;1.87;;;;;;;;;;5025669;28;59407;-75
2024/03/06 06:12:04;;;;;;;2.67;1.48;;;;;;;;;;5024950;28;59350;-76
2024/03/06 06:14:29;;;;;;;2.03;1.50;;;;;;;;;;5029289;28;60440;-75
2024/03/06 06:16:54;;;;;;;2.05;1.92;;;;;;;;;;5026745;28;59274;-75
2024/03/06 06:19:19;;;;;;;3.13;1.53;;;;;;;;;;5028422;28;59468;-75
2024/03/06 06:21:44;;;;;;;2.22;2.03;;;;;;;;;;5026723;28;60509;-76
2024/03/06 06:24:10;;;;;;;1.87;1.43;;;;;;;;;;5025610;28;59500;-75
2024/03/06 06:26:35;;;;;;;1.42;1.33;;;;;;;;;;5026665;28;59217;-76
2024/03/06 06:29:00;;;;;;;1.60;1.50;;;;;;;;;;5024821;28;59213;-75
2024/03/06 06:31:26;;;;;;;1.53;1.20;;;;;;;;;;5024694;28;59502;-77
2024/03/06 06:33:51;;;;;;;1.85;1.75;;;;;;;;;;5025093;28;60072;-77
2024/03/06 06:36:17;;;;;;;2.57;1.60;;;;;;;;;;5025641;28;59478;-77
2024/03/06 06:38:42;;;;;;;1.67;1.55;;;;;;;;;;5022565;27;58480;-77
2024/03/06 06:41:08;;;;;;;1.60;1.50;;;;;;;;;;5024666;28;60035;-76
2024/03/06 06:43:33;;;;;;;2.27;2.10;;;;;;;;;;5024282;28;59119;-75
2024/03/06 06:45:58;;;;;;;1.90;1.63;;;;;;;;;;5026152;28;58594;-76
2024/03/06 06:48:24;;;;;;;2.08;1.77;;;;;;;;;;5026969;28;61187;-75
2024/03/06 06:50:49;;;;;;;1.67;1.58;;;;;;;;;;5029468;28;59315;-75
2024/03/06 06:53:14;;;;;;;1.50;1.40;;;;;;;;;;5030308;28;59832;-75
2024/03/06 06:55:39;;;;;;;3.17;2.10;;;;;;;;;;5030195;28;59867;-76
2024/03/06 06:58:04;;;;;;;1.55;1.45;;;;;;;;;;5029300;28;59448;-75
2024/03/06 07:00:30;;;;;;;1.83;1.50;;;;;;;;;;5029555;28;60928;-75
2024/03/06 07:02:58;;;;;;;1.85;1.70;;;;;;;;;;5029210;28;59988;-75
2024/03/06 07:05:23;;;;;;;1.85;1.73;;;;;;;;;;5030808;28;60150;-75
2024/03/06 07:07:49;;;;;;;1.58;1.48;;;;;;;;;;5030157;28;60131;-75
2024/03/06 07:10:14;;;;;;;1.33;1.23;;;;;;;;;;5031004;28;59202;-76
2024/03/06 07:12:39;;;;;;;1.45;1.35;;;;;;;;;;5029032;28;60082;-75
2024/03/06 07:15:04;;;;;;;1.60;1.50;;;;;;;;;;5029371;28;59143;-76
2024/03/06 07:17:30;;;;;;;0.95;0.95;;;;;;;;;;5031762;28;59224;-75
2024/03/06 07:19:55;;;;;;;1.50;1.40;;;;;;;;;;5030542;28;60063;-76
2024/03/06 07:22:21;;;;;;;1.80;1.70;;;;;;;;;;5028337;28;59176;-75
2024/03/06 07:24:46;;;;;;;1.33;1.23;;;;;;;;;;5029430;28;59531;-75
2024/03/06 07:27:12;;;;;;;1.60;1.35;;;;;;;;;;5026120;28;60423;-75
2024/03/06 07:29:37;;;;;;;2.00;1.90;;;;;;;;;;5027200;28;59441;-75
2024/03/06 07:32:02;;;;;;;1.80;1.70;;;;;;;;;;5031415;28;59191;-75
2024/03/06 07:34:28;;;;;;;2.00;1.80;;;;;;;;;;5024996;28;60268;-75
2024/03/06 07:36:53;;;;;;;1.85;1.65;;;;;;;;;;5026968;28;59199;-75
2024/03/06 07:39:21;;;;;;;1.80;1.60;;;;;;;;;;5026044;28;61768;-76
2024/03/06 07:41:47;;;;;;;1.42;1.33;;;;;;;;;;5025953;28;59440;-77
2024/03/06 07:44:12;;;;;;;1.73;1.10;;;;;;;;;;5030940;28;59288;-77
2024/03/06 07:46:37;;;;;;;1.67;1.58;;;;;;;;;;5031859;28;60131;-77
2024/03/06 07:49:03;;;;;;;2.60;1.90;;;;;;;;;;5030144;28;59869;-77
2024/03/06 07:51:28;;;;;;;2.00;1.80;;;;;;;;;;5027658;28;59242;-77
2024/03/06 07:53:53;;;;;;;1.55;1.45;;;;;;;;;;5028770;27;60274;-78
2024/03/06 07:56:19;;;;;;;1.52;1.42;;;;;;;;;;5027415;28;59211;-77
2024/03/06 07:58:44;;;;;;;1.77;1.67;;;;;;;;;;5029299;28;60067;-77
2024/03/06 08:01:10;;;;;;;1.50;1.40;;;;;;;;;;5028437;28;59355;-77
2024/03/06 08:03:38;;;;;;;2.05;1.80;;;;;;;;;;5029841;28;59287;-77
2024/03/06 08:06:03;;;;;;;1.43;1.33;;;;;;;;;;5030000;28;60105;-77
2024/03/06 08:08:28;;;;;;;2.03;1.55;;;;;;;;;;5030564;28;59271;-77
2024/03/06 08:10:54;;;;;;;1.60;1.50;;;;;;;;;;5028879;27;59264;-77
2024/03/06 08:13:19;;;;;;;1.55;1.45;;;;;;;;;;5028615;28;59670;-77
2024/03/06 08:15:45;;;;;;;1.80;1.70;;;;;;;;;;5028649;27;59214;-77
2024/03/06 08:18:11;;;;;;;1.77;1.67;;;;;;;;;;5029802;28;60144;-77
2024/03/06 08:20:37;;;;;;;2.17;1.85;;;;;;;;;;5028157;28;59771;-76
2024/03/06 08:23:02;;;;;;;1.50;1.40;;;;;;;;;;5028660;28;59215;-77
2024/03/06 08:25:27;;;;;;;1.63;1.53;;;;;;;;;;5029775;28;60961;-76
2024/03/06 08:27:52;;;;;;;1.67;1.58;;;;;;;;;;5027664;28;59429;-75
2024/03/06 08:30:17;;;;;;;1.55;1.45;;;;;;;;;;5028741;28;59380;-77
2024/03/06 08:32:43;;;;;;;1.93;1.83;;;;;;;;;;5028379;28;60316;-76
2024/03/06 08:35:12;;;;;;;1.58;1.42;;;;;;;;;;5030955;28;59416;-76
2024/03/06 08:37:41;;;;;;;1.83;1.73;;;;;;;;;;5028904;28;59206;-76
2024/03/06 08:40:17;;;;;;;2.08;1.90;;;;;;;;;;5024548;28;59589;-76
2024/03/06 08:42:42;;;;;;;1.92;1.73;;;;;;;;;;5027899;28;59180;-76
2024/03/06 08:45:08;;;;;;;2.10;1.97;;;;;;;;;;5028967;28;61478;-76
2024/03/06 08:47:33;;;;;;;1.77;1.67;;;;;;;;;;5026569;28;59873;-76
2024/03/06 08:49:58;;;;;;;3.55;2.28;;;;;;;;;;5029822;28;59303;-76
2024/03/06 08:52:23;;;;;;;1.60;1.48;;;;;;;;;;5026636;28;59992;-75
2024/03/06 08:54:49;;;;;;;1.10;1.00;;;;;;;;;;5025716;28;59790;-77
2024/03/06 08:57:14;;;;;;;1.77;1.67;;;;;;;;;;5028555;28;59440;-78
2024/03/06 08:59:39;;;;;;;1.43;1.33;;;;;;;;;;5029790;28;59729;-77
2024/03/06 09:02:19;;;;;;;1.70;1.60;;;;;;;;;;5029440;28;59316;-75
2024/03/06 09:04:44;;;;;;;1.30;1.20;;;;;;;;;;5030302;27;59434;-77
2024/03/06 09:07:10;;;;;;;1.60;1.50;;;;;;;;;;5026807;28;59777;-76
2024/03/06 09:09:36;;;;;;;1.67;1.57;;;;;;;;;;5028458;28;59246;-76
2024/03/06 09:12:04;;;;;;;1.52;1.42;;;;;;;;;;5027660;28;60246;-75
2024/03/06 09:14:29;;;;;;;1.55;1.45;;;;;;;;;;5027376;28;59365;-76
2024/03/06 09:16:54;;;;;;;1.73;1.63;;;;;;;;;;5026478;28;59242;-76
2024/03/06 09:19:19;;;;;;;1.60;1.50;;;;;;;;;;5028425;28;60038;-76
2024/03/06 09:21:45;;;;;;;1.87;1.77;;;;;;;;;;5026325;28;59132;-76
2024/03/06 09:24:10;;;;;;;1.57;1.40;;;;;;;;;;5027359;28;60306;-75
2024/03/06 09:26:35;;;;;;;1.80;1.65;;;;;;;;;;5026538;28;59186;-76
2024/03/06 09:29:01;;;;;;;1.65;1.55;;;;;;;;;;5027666;28;59313;-76
2024/03/06 09:31:27;;;;;;;1.85;1.73;;;;;;;;;;5026981;28;59449;-75
2024/03/06 09:33:52;;;;;;;1.92;1.83;;;;;;;;;;5027530;28;59922;-76
2024/03/06 09:36:17;;;;;;;2.35;2.15;;;;;;;;;;5029258;28;59564;-75
2024/03/06 09:38:43;;;;;;;1.63;1.52;;;;;;;;;;5028261;28;61017;-75
2024/03/06 09:41:08;;;;;;;1.87;1.77;;;;;;;;;;5028580;28;59290;-75
2024/03/06 09:43:33;;;;;;;1.80;1.70;;;;;;;;;;5028626;28;59929;-75
2024/03/06 09:45:58;;;;;;;1.50;1.40;;;;;;;;;;5027858;28;59144;-75
2024/03/06 09:48:23;;;;;;;2.10;1.87;;;;;;;;;;5026463;28;59204;-75
2024/03/06 09:50:50;;;;;;;1.40;1.30;;;;;;;;;;5027782;28;60161;-76
2024/03/06 09:53:16;;;;;;;1.55;1.45;;;;;;;;;;5027577;28;59686;-75
2024/03/06 09:55:42;;;;;;;2.40;1.63;;;;;;;;;;5029333;28;59212;-76
2024/03/06 09:58:08;;;;;;;1.42;1.33;;;;;;;;;;5026746;28;60297;-75
2024/03/06 10:00:33;;;;;;;1.90;1.80;;;;;;;;;;5025942;28;59230;-73
2024/03/06 10:03:02;;;;;;;1.63;1.52;;;;;;;;;;5026874;28;59297;-77
2024/03/06 10:05:28;;;;;;;1.50;1.40;;;;;;;;;;5023422;28;59730;-76
2024/03/06 10:07:53;;;;;;;1.77;1.67;;;;;;;;;;5025774;28;59173;-77
2024/03/06 10:10:19;;;;;;;1.60;1.50;;;;;;;;;;5028677;28;61322;-77
2024/03/06 10:12:45;;;;;;;2.20;2.10;;;;;;;;;;5026705;28;60216;-77
2024/03/06 10:15:12;;;;;;;1.92;1.83;;;;;;;;;;5024925;28;59251;-77
2024/03/06 10:17:37;;;;;;;1.77;1.67;;;;;;;;;;5026828;28;61121;-77
2024/03/06 10:20:16;;;;;;;2.05;1.80;;;;;;;;;;5026344;28;59184;-77
2024/03/06 10:22:41;;;;;;;1.48;1.38;;;;;;;;;;5028034;28;59281;-77
2024/03/06 10:25:09;;;;;;;1.77;1.67;;;;;;;;;;5023793;28;59479;-77
2024/03/06 10:27:35;;;;;;;1.77;1.67;;;;;;;;;;5026805;28;59210;-77
2024/03/06 10:30:00;;;;;;;1.73;1.63;;;;;;;;;;5027346;28;61398;-77
2024/03/06 10:32:25;;;;;;;1.55;1.45;;;;;;;;;;5026427;28;60236;-77
2024/03/06 10:34:52;;;;;;;2.13;1.92;;;;;;;;;;5027753;28;59409;-78
2024/03/06 10:37:17;;;;;;;1.88;1.67;;;;;;;;;;5031223;28;60192;-77
2024/03/06 10:39:44;;;;;;;1.73;1.63;;;;;;;;;;5026949;28;59392;-77
2024/03/06 10:42:12;;;;;;;1.70;1.60;;;;;;;;;;5027010;28;59262;-77
2024/03/06 10:44:41;;;;;;;2.25;1.95;;;;;;;;;;5029128;28;61564;-77
2024/03/06 10:47:09;;;;;;;1.65;1.55;;;;;;;;;;5026515;28;59673;-77
2024/03/06 10:49:35;;;;;;;1.73;1.60;;;;;;;;;;5027518;28;59383;-77
2024/03/06 10:52:01;;;;;;;2.00;1.80;;;;;;;;;;5026102;28;59372;-77
2024/03/06 10:54:26;;;;;;;1.90;1.70;;;;;;;;;;5026198;28;59323;-77
2024/03/06 10:56:53;;;;;;;1.90;1.80;;;;;;;;;;5026742;28;59349;-77
2024/03/06 10:59:19;;;;;;;2.35;2.15;;;;;;;;;;5029120;28;59929;-77
2024/03/06 11:01:46;;;;;;;2.45;1.92;;;;;;;;;;5027725;28;59275;-77
2024/03/06 11:04:12;;;;;;;1.38;1.27;;;;;;;;;;5028438;28;60193;-77
2024/03/06 11:06:38;;;;;;;1.92;1.83;;;;;;;;;;5026958;28;59323;-77
2024/03/06 11:09:03;;;;;;;1.70;1.60;;;;;;;;;;5026304;28;60127;-77
2024/03/06 11:11:29;;;;;;;2.50;2.10;;;;;;;;;;5026350;28;59200;-77
2024/03/06 11:14:04;;;;;;;1.48;1.38;;;;;;;;;;5028682;28;59342;-77
2024/03/06 11:16:33;;;;;;;1.88;1.77;;;;;;;;;;5026145;28;60162;-77
2024/03/06 11:19:06;;;;;;;1.80;1.70;;;;;;;;;;5024623;28;59254;-77
2024/03/06 11:21:31;;;;;;;2.20;2.00;;;;;;;;;;5024436;28;59199;-76
2024/03/06 11:24:11;;;;;;;1.50;1.40;;;;;;;;;;5026993;28;60340;-76
2024/03/06 11:26:36;;;;;;;1.58;1.48;;;;;;;;;;5022120;28;59377;-75
2024/03/06 11:29:01;;;;;;;2.03;1.73;;;;;;;;;;5027487;28;59328;-75
2024/03/06 11:31:27;;;;;;;1.60;1.50;;;;;;;;;;5025410;28;59477;-76
2024/03/06 11:33:53;;;;;;;1.37;1.27;;;;;;;;;;5024617;28;59313;-76
2024/03/06 11:36:20;;;;;;;1.90;1.80;;;;;;;;;;5028217;28;60187;-76
2024/03/06 11:39:05;;;;;;;1.92;1.73;;;;;;;;;;5027353;28;59227;-76
2024/03/06 11:41:31;;;;;;;1.95;1.85;;;;;;;;;;5030257;28;59353;-76
2024/03/06 11:43:56;;;;;;;1.77;1.67;;;;;;;;;;5028782;28;60090;-75
2024/03/06 11:46:40;;;;;;;2.53;1.92;;;;;;;;;;5028664;28;59246;-75
2024/03/06 11:49:14;;;;;;;2.65;2.47;;;;;;;;;;5029085;28;59280;-75
2024/03/06 11:51:39;;;;;;;1.73;1.63;;;;;;;;;;5029644;28;59389;-76
2024/03/06 11:54:05;;;;;;;2.28;2.08;;;;;;;;;;5027753;27;59266;-76
2024/03/06 11:56:30;;;;;;;1.92;1.75;;;;;;;;;;5026725;28;60415;-76
2024/03/06 11:58:55;;;;;;;2.35;2.15;;;;;;;;;;5027416;28;59524;-75
2024/03/06 12:01:20;;;;;;;2.13;2.03;;;;;;;;;;5027876;28;59397;-75
2024/03/06 12:03:46;;;;;;;2.00;1.80;;;;;;;;;;5029570;28;60055;-76
2024/03/06 12:06:12;;;;;;;2.22;1.95;;;;;;;;;;5026790;28;59343;-75
2024/03/06 12:08:39;;;;;;;2.23;2.03;;;;;;;;;;5028185;28;59749;-75
2024/03/06 12:11:05;;;;;;;2.50;2.30;;;;;;;;;;5030527;28;60223;-75
2024/03/06 12:13:30;;;;;;;2.00;1.90;;;;;;;;;;5029761;28;59316;-76
2024/03/06 12:15:55;;;;;;;1.70;1.60;;;;;;;;;;5028595;28;59701;-75
2024/03/06 12:18:21;;;;;;;2.25;2.05;;;;;;;;;;5029387;28;59630;-76
2024/03/06 12:20:46;;;;;;;2.17;1.97;;;;;;;;;;5028660;28;58972;-76
2024/03/06 12:23:22;;;;;;;1.90;1.63;;;;;;;;;;5030774;28;60895;-75
2024/03/06 12:25:47;;;;;;;2.00;1.80;;;;;;;;;;5027863;28;59285;-75
2024/03/06 12:28:12;;;;;;;2.20;2.00;;;;;;;;;;5028973;28;59219;-76
2024/03/06 12:30:44;;;;;;;1.63;1.47;;;;;;;;;;5029372;28;60504;-75
2024/03/06 12:33:11;;;;;;;2.35;2.15;;;;;;;;;;5029703;28;59402;-76
2024/03/06 12:35:37;;;;;;;1.83;1.73;;;;;;;;;;5026320;28;60678;-76
2024/03/06 12:38:11;;;;;;;1.90;1.80;;;;;;;;;;5026998;28;59486;-76
2024/03/06 12:40:36;;;;;;;1.95;1.80;;;;;;;;;;5028269;28;59265;-76
2024/03/06 12:43:02;;;;;;;1.97;1.87;;;;;;;;;;5027443;28;60026;-76
2024/03/06 12:45:27;;;;;;;2.25;2.08;;;;;;;;;;5027604;28;59321;-76
2024/03/06 12:47:54;;;;;;;2.47;2.28;;;;;;;;;;5031589;28;59199;-76
2024/03/06 12:50:20;;;;;;;2.85;2.38;;;;;;;;;;5028311;28;59310;-76
2024/03/06 12:52:45;;;;;;;1.83;1.73;;;;;;;;;;5026568;28;59652;-75
2024/03/06 12:55:11;;;;;;;2.45;2.25;;;;;;;;;;5027019;28;59299;-76
2024/03/06 12:57:36;;;;;;;2.10;1.90;;;;;;;;;;5024947;28;60148;-76
2024/03/06 13:00:01;;;;;;;2.20;2.00;;;;;;;;;;5028736;28;59245;-75
2024/03/06 13:02:26;;;;;;;2.03;1.93;;;;;;;;;;5028655;28;59391;-75
2024/03/06 13:04:52;;;;;;;2.50;2.30;;;;;;;;;;5024896;28;59245;-76
2024/03/06 13:07:17;;;;;;;2.47;2.28;;;;;;;;;;5026598;28;59142;-76
2024/03/06 13:09:42;;;;;;;2.47;2.27;;;;;;;;;;5027051;28;60718;-76
2024/03/06 13:12:08;;;;;;;2.33;2.13;;;;;;;;;;5027801;28;59671;-76
2024/03/06 13:14:33;;;;;;;2.00;1.90;;;;;;;;;;5028158;28;59156;-76
2024/03/06 13:16:59;;;;;;;1.93;1.80;;;;;;;;;;5027555;28;59412;-76
2024/03/06 13:19:24;;;;;;;2.63;2.05;;;;;;;;;;5028051;28;58562;-74
2024/03/06 13:21:49;;;;;;;2.13;1.97;;;;;;;;;;5029602;28;61062;-74
2024/03/06 13:24:14;;;;;;;2.17;2.00;;;;;;;;;;5025591;28;59451;-74
2024/03/06 13:26:40;;;;;;;1.87;1.77;;;;;;;;;;5027506;27;59290;-74
2024/03/06 13:29:06;;;;;;;3.63;1.90;;;;;;;;;;5028205;28;60148;-74
2024/03/06 13:31:33;;;;;;;2.08;1.95;;;;;;;;;;5027141;28;59245;-75
2024/03/06 13:33:58;;;;;;;2.20;2.05;;;;;;;;;;5025271;28;59176;-75
2024/03/06 13:36:23;;;;;;;2.03;1.80;;;;;;;;;;5024927;28;60966;-74
2024/03/06 13:38:48;;;;;;;2.70;2.50;;;;;;;;;;5027095;28;59670;-75
2024/03/06 13:41:14;;;;;;;2.30;2.10;;;;;;;;;;5027393;28;60060;-75
2024/03/06 13:43:39;;;;;;;2.97;2.70;;;;;;;;;;5028536;28;59246;-74
2024/03/06 13:46:04;;;;;;;2.65;2.35;;;;;;;;;;5028232;28;59221;-74
2024/03/06 13:48:30;;;;;;;2.17;2.07;;;;;;;;;;5026979;28;59492;-75
2024/03/06 13:50:55;;;;;;;2.70;2.50;;;;;;;;;;5026380;28;59447;-76
2024/03/06 13:53:20;;;;;;;2.80;2.50;;;;;;;;;;5028980;28;59503;-75
2024/03/06 13:55:45;;;;;;;2.50;2.30;;;;;;;;;;5025383;28;60051;-74
2024/03/06 13:58:11;;;;;;;2.80;2.60;;;;;;;;;;5025824;28;59441;-75
2024/03/06 14:00:36;;;;;;;2.40;2.20;;;;;;;;;;5027722;28;59288;-75
2024/03/06 14:03:02;;;;;;;2.50;2.30;;;;;;;;;;5028272;28;59504;-75
2024/03/06 14:05:28;;;;;;;2.53;2.28;;;;;;;;;;5025394;28;59350;-76
2024/03/06 14:07:55;;;;;;;2.67;2.45;;;;;;;;;;5026063;28;60353;-74
2024/03/06 14:10:21;;;;;;;3.30;3.00;;;;;;;;;;5027421;28;59305;-74
2024/03/06 14:12:46;;;;;;;2.67;2.47;;;;;;;;;;5026156;28;59174;-74
2024/03/06 14:15:12;;;;;;;2.57;2.37;;;;;;;;;;5029729;27;59298;-75
2024/03/06 14:17:37;;;;;;;2.40;2.20;;;;;;;;;;5025971;28;59077;-76
2024/03/06 14:20:03;;;;;;;2.73;2.50;;;;;;;;;;5028276;28;59199;-74
2024/03/06 14:22:28;;;;;;;2.60;2.40;;;;;;;;;;5025368;28;60380;-75
2024/03/06 14:24:54;;;;;;;2.35;2.15;;;;;;;;;;5022978;28;59336;-74
2024/03/06 14:27:19;;;;;;;2.78;2.45;;;;;;;;;;5023050;28;59609;-75
2024/03/06 14:29:44;;;;;;;2.80;2.60;;;;;;;;;;5021808;28;59356;-75
2024/03/06 14:32:09;;;;;;;3.03;2.83;;;;;;;;;;5024831;28;59243;-74
2024/03/06 14:34:35;;;;;;;2.30;2.03;;;;;;;;;;5025883;28;59310;-74